»·PEaware :: BAW9051 MMAA-KOAK

BAW9051 :: MMAA-KOAK

FLIGHT INFORMATION

Flight Status: Arrived
Operator:
British Airways
More flights by this operator :: More flights under this callsign
Pilot: Matthew M. (8235)
Aircraft: AÉROSPATIALE-BAC CONCORDE
(CONC)
More flights by this aircraft type
Origin: MMAA Gen Juan N Alvarez Intl
Mexico
Destination: KOAK Metro Oakland Intl
United States
More flights between these airports :: More routes between these airports
Route: +17N101W 18N105W 21N110W 24N113W 31N119W BEFIN AVE PXN6
File this flight plan on PilotEdge
Remarks: IFP / RVSMVIOLAITON
Altitude:
(Current/Filed)
50,000ft
Speed:
(Current/Filed)
999kts
Departed: 16-Jun-20 02:55 PM
Arrived: 16-Jun-20 05:21 PM
Distance/Time
Traveled:
1728nm/2:26
Distance/Time
To Go:
Arrived

Flight Plot

Page will automatically refresh every two minutes.


Map Options




Map Legend


Flown Route
Filed Route
Departure Airport
Arrival Airport
Navaid (VOR, NDB)
Fix

Horizontal Profiles

Position Reports

Time Latitude Longitude Heading Altitude Ground
Speed
16-Jun-20 14:29 16.761182 -99.754640 20 25ft 0kts
16-Jun-20 14:30 16.761182 -99.754640 20 25ft 0kts
16-Jun-20 14:31 16.761182 -99.754640 20 25ft 0kts
16-Jun-20 14:32 16.761182 -99.754640 20 25ft 0kts
16-Jun-20 14:33 16.761182 -99.754640 20 25ft 0kts
16-Jun-20 14:35 16.761182 -99.754640 20 25ft 0kts
16-Jun-20 14:36 16.761182 -99.754640 20 25ft 0kts
16-Jun-20 14:37 16.761182 -99.754640 20 25ft 0kts
16-Jun-20 14:38 16.761182 -99.754640 20 25ft 0kts
16-Jun-20 14:39 16.761182 -99.754640 20 25ft 0kts
16-Jun-20 14:40 16.761182 -99.754640 20 25ft 0kts
16-Jun-20 14:41 16.761182 -99.754640 20 25ft 0kts
16-Jun-20 14:42 16.761182 -99.754640 20 25ft 0kts
16-Jun-20 14:43 16.761182 -99.754640 20 25ft 0kts
16-Jun-20 14:44 16.761182 -99.754640 20 25ft 0kts
16-Jun-20 14:45 16.761182 -99.754640 20 25ft 0kts
16-Jun-20 14:46 16.761182 -99.754640 20 25ft 0kts
16-Jun-20 14:47 16.760626 -99.754866 36 25ft 2kts
16-Jun-20 14:48 16.760426 -99.755446 104 25ft 0kts
16-Jun-20 14:49 16.760447 -99.755513 107 25ft 0kts
16-Jun-20 14:50 16.760445 -99.755506 107 25ft 0kts
16-Jun-20 14:51 16.759318 -99.753608 154 25ft 11kts
16-Jun-20 14:51 16.757418 -99.748507 109 25ft 28kts
16-Jun-20 14:53 16.754364 -99.738823 107 21ft 29kts
16-Jun-20 14:53 16.751941 -99.733322 192 22ft 14kts
16-Jun-20 14:54 16.751696 -99.736536 287 22ft 91kts
16-Jun-20 14:56 16.770832 -99.813228 276 4562ft 250kts
16-Jun-20 14:56 16.783558 -99.878751 280 6356ft 290kts
16-Jun-20 14:57 16.800297 -99.963073 281 9363ft 307kts
16-Jun-20 14:58 16.819893 -100.062459 282 12677ft 412kts
16-Jun-20 14:59 16.844797 -100.189534 282 18209ft 465kts
16-Jun-20 15:00 16.871333 -100.326444 282 23863ft 497kts
16-Jun-20 15:01 16.899629 -100.473710 282 29565ft 538kts
16-Jun-20 15:02 16.931050 -100.638597 282 34672ft 636kts
16-Jun-20 15:03 16.966312 -100.825406 281 38752ft 692kts
16-Jun-20 15:04 17.005860 -101.024596 285 40582ft 758kts
16-Jun-20 15:05 17.054079 -101.210160 285 42232ft 848kts
16-Jun-20 15:06 17.107785 -101.417427 285 44602ft 999kts
16-Jun-20 15:07 17.165567 -101.641273 285 47823ft 1048kts
16-Jun-20 15:08 17.226245 -101.877621 285 50548ft 1090kts
16-Jun-20 15:09 17.293577 -102.141202 285 51228ft 1144kts
16-Jun-20 15:10 17.365650 -102.425012 285 51272ft 1162kts
16-Jun-20 15:11 17.437860 -102.711164 285 51303ft 1159kts
16-Jun-20 15:12 17.513280 -103.012022 285 51346ft 1158kts
16-Jun-20 15:13 17.591203 -103.324849 284 51390ft 1168kts
16-Jun-20 15:14 17.671174 -103.648506 284 51436ft 1167kts
16-Jun-20 15:15 17.754744 -103.989242 284 51479ft 1167kts
16-Jun-20 15:16 17.839506 -104.337670 284 51525ft 1167kts
16-Jun-20 15:17 17.918080 -104.663260 284 51570ft 1167kts
16-Jun-20 15:18 18.009940 -104.996348 297 51840ft 1169kts
16-Jun-20 15:19 18.183332 -105.290833 303 52132ft 1174kts
16-Jun-20 15:20 18.359252 -105.577817 303 52183ft 1172kts
16-Jun-20 15:21 18.531479 -105.857855 303 52227ft 1172kts
16-Jun-20 15:22 18.708189 -106.145695 303 52272ft 1172kts
16-Jun-20 15:23 18.886202 -106.436722 303 52322ft 1172kts
16-Jun-20 15:24 19.061463 -106.724370 302 52372ft 1164kts
16-Jun-20 15:25 19.227196 -106.997619 302 52415ft 1163kts
16-Jun-20 15:26 19.396666 -107.278444 302 52455ft 1162kts
16-Jun-20 15:27 19.579304 -107.582529 302 52497ft 1162kts
16-Jun-20 15:28 19.763029 -107.889938 301 52549ft 1162kts
16-Jun-20 15:29 19.946525 -108.198539 301 52601ft 1162kts
16-Jun-20 15:30 20.121166 -108.493771 301 52649ft 1162kts
16-Jun-20 15:31 20.299870 -108.797087 301 52690ft 1162kts
16-Jun-20 15:32 20.482146 -109.107756 301 52737ft 1161kts
16-Jun-20 15:33 20.661576 -109.415274 301 52780ft 1160kts
16-Jun-20 15:34 20.839191 -109.721510 300 52826ft 1160kts
16-Jun-20 15:35 21.028480 -110.020423 315 53160ft 1164kts
16-Jun-20 15:36 21.255580 -110.246098 316 53329ft 1161kts
16-Jun-20 15:37 21.460601 -110.447893 316 53356ft 1161kts
16-Jun-20 15:38 21.672117 -110.655982 316 53383ft 1161kts
16-Jun-20 15:39 21.882564 -110.863489 316 53436ft 1161kts
16-Jun-20 15:40 22.116386 -111.094842 316 53491ft 1158kts
16-Jun-20 15:41 22.361018 -111.338081 316 53523ft 1157kts
16-Jun-20 15:42 22.608828 -111.585700 316 53551ft 1157kts
16-Jun-20 15:43 22.855463 -111.833386 315 53605ft 1157kts
16-Jun-20 15:44 23.092873 -112.072648 314 53668ft 1152kts
16-Jun-20 15:45 23.322476 -112.305793 314 53691ft 1152kts
16-Jun-20 15:46 23.531598 -112.519008 314 53705ft 1152kts
16-Jun-20 15:47 23.739059 -112.731454 314 53737ft 1152kts
16-Jun-20 15:48 23.949222 -112.947582 314 53799ft 1152kts
16-Jun-20 15:49 24.180014 -113.140966 321 54006ft 1160kts
16-Jun-20 15:50 24.418044 -113.331924 321 54024ft 1158kts
16-Jun-20 15:51 24.658874 -113.525293 321 54040ft 1158kts
16-Jun-20 15:52 24.897404 -113.717454 321 54077ft 1158kts
16-Jun-20 15:53 25.135598 -113.910395 321 54144ft 1158kts
16-Jun-20 15:54 25.370790 -114.101462 321 54177ft 1158kts
16-Jun-20 15:55 25.615183 -114.301063 321 54210ft 1157kts
16-Jun-20 15:56 25.866010 -114.507024 321 54240ft 1158kts
16-Jun-20 15:57 26.104595 -114.704003 321 54279ft 1157kts
16-Jun-20 15:58 26.341855 -114.900890 321 54323ft 1157kts
16-Jun-20 15:59 26.589882 -115.107843 321 54365ft 1159kts
16-Jun-20 16:00 26.839326 -115.317119 321 54404ft 1160kts
16-Jun-20 16:01 27.083559 -115.524490 324 54458ft 1170kts
16-Jun-20 16:02 27.311046 -115.716624 324 54509ft 1168kts
16-Jun-20 16:03 27.531754 -115.904536 324 54546ft 1167kts
16-Jun-20 16:04 27.764578 -116.103989 324 54586ft 1167kts
16-Jun-20 16:05 27.995585 -116.303072 324 54623ft 1167kts
16-Jun-20 16:06 28.228987 -116.505346 324 54679ft 1168kts
16-Jun-20 16:07 28.469007 -116.714566 323 54732ft 1168kts
16-Jun-20 16:08 28.703783 -116.920437 323 54765ft 1168kts
16-Jun-20 16:09 28.938618 -117.127693 324 54798ft 1168kts
16-Jun-20 16:10 29.169094 -117.331760 323 54838ft 1160kts
16-Jun-20 16:11 29.397038 -117.535302 323 54892ft 1160kts
16-Jun-20 16:12 29.620551 -117.735963 322 54935ft 1160kts
16-Jun-20 16:13 29.853518 -117.946311 322 54968ft 1160kts
16-Jun-20 16:14 30.087842 -118.159171 322 55000ft 1160kts
16-Jun-20 16:15 30.317846 -118.369385 322 55052ft 1161kts
16-Jun-20 16:16 30.537207 -118.571085 322 55102ft 1160kts
16-Jun-20 16:17 30.763201 -118.780142 322 55140ft 1161kts
16-Jun-20 16:18 30.998684 -118.984271 334 55377ft 1153kts
16-Jun-20 16:19 31.264033 -119.097791 341 55742ft 1158kts
16-Jun-20 16:20 31.547367 -119.208452 341 55785ft 1155kts
16-Jun-20 16:21 31.871773 -119.333845 341 55819ft 1155kts
16-Jun-20 16:22 32.172348 -119.450014 341 55794ft 1151kts
16-Jun-20 16:23 32.414413 -119.544478 341 54490ft 1074kts
16-Jun-20 16:24 32.667444 -119.644000 341 52678ft 1006kts
16-Jun-20 16:25 32.895711 -119.734355 341 50949ft 948kts
16-Jun-20 16:26 33.111538 -119.819926 339 48426ft 826kts
16-Jun-20 16:27 33.270830 -119.883568 339 46170ft 725kts
16-Jun-20 16:28 33.420773 -119.943772 339 43758ft 620kts
16-Jun-20 16:29 33.550908 -119.996196 338 40626ft 543kts
16-Jun-20 16:31 33.683895 -120.050061 338 38047ft 532kts
16-Jun-20 16:32 33.816683 -120.079409 359 38029ft 541kts
16-Jun-20 16:33 33.948575 -120.073233 359 38017ft 540kts
16-Jun-20 16:34 34.067455 -120.067213 359 38017ft 541kts
16-Jun-20 16:35 34.173976 -120.061539 359 38019ft 541kts
16-Jun-20 16:36 34.284631 -120.055441 359 38018ft 541kts
16-Jun-20 16:37 34.398670 -120.049000 359 38018ft 541kts
16-Jun-20 16:38 34.510071 -120.042595 359 38018ft 541kts
16-Jun-20 16:39 34.617455 -120.036342 359 38018ft 541kts
16-Jun-20 16:40 34.731988 -120.029607 359 38018ft 541kts
16-Jun-20 16:41 34.847395 -120.022768 359 38019ft 541kts
16-Jun-20 16:42 34.970089 -120.015283 358 38018ft 540kts
16-Jun-20 16:43 35.093699 -120.007733 357 38021ft 539kts
16-Jun-20 16:44 35.196270 -120.001641 357 38035ft 539kts
16-Jun-20 16:45 35.312090 -119.994705 357 38036ft 539kts
16-Jun-20 16:46 35.429404 -119.987633 357 38023ft 539kts
16-Jun-20 16:47 35.549332 -119.980362 357 37999ft 539kts
16-Jun-20 16:48 35.659708 -119.997465 326 38056ft 515kts
16-Jun-20 16:48 35.736501 -120.055819 324 38000ft 513kts
16-Jun-20 16:50 35.848251 -120.140498 324 37998ft 513kts
16-Jun-20 16:50 35.927279 -120.200373 324 37997ft 513kts
16-Jun-20 16:51 36.024729 -120.274178 324 37246ft 511kts
16-Jun-20 16:53 36.129985 -120.353848 324 36408ft 510kts
16-Jun-20 16:53 36.203278 -120.409324 324 35830ft 511kts
16-Jun-20 16:54 36.295114 -120.478869 324 35106ft 514kts
16-Jun-20 16:55 36.389074 -120.545461 332 34274ft 521kts
16-Jun-20 16:56 36.497571 -120.602731 333 32996ft 525kts
16-Jun-20 16:57 36.603786 -120.659299 332 30422ft 518kts
16-Jun-20 16:58 36.676650 -120.729712 303 27543ft 485kts
16-Jun-20 16:59 36.756928 -120.831240 314 24486ft 466kts
16-Jun-20 17:00 36.834387 -120.922390 314 24041ft 463kts
16-Jun-20 17:01 36.920589 -121.023651 314 24008ft 463kts
16-Jun-20 17:02 36.998718 -121.115855 314 21462ft 446kts
16-Jun-20 17:03 37.082717 -121.214276 315 18618ft 422kts
16-Jun-20 17:04 37.161606 -121.307560 315 15859ft 406kts
16-Jun-20 17:05 37.231599 -121.391029 315 14325ft 364kts
16-Jun-20 17:06 37.286882 -121.457156 315 12621ft 328kts
16-Jun-20 17:07 37.340461 -121.521846 315 10384ft 302kts
16-Jun-20 17:08 37.389836 -121.581688 315 9392ft 271kts
16-Jun-20 17:09 37.439531 -121.642647 315 6993ft 260kts
16-Jun-20 17:10 37.486372 -121.700933 308 6009ft 259kts
16-Jun-20 17:11 37.503647 -121.777945 283 5997ft 246kts
16-Jun-20 17:12 37.515076 -121.850332 283 5678ft 240kts
16-Jun-20 17:13 37.515661 -121.925038 278 4492ft 236kts
16-Jun-20 17:14 37.547351 -121.983536 309 4114ft 232kts
16-Jun-20 17:15 37.582924 -122.036732 308 3312ft 213kts
16-Jun-20 17:16 37.611289 -122.078945 308 2771ft 203kts
16-Jun-20 17:17 37.642335 -122.125072 307 2167ft 193kts
16-Jun-20 17:18 37.674751 -122.173840 307 824ft 185kts
16-Jun-20 17:19 37.701658 -122.214533 308 91ft 189kts
16-Jun-20 17:20 37.718816 -122.240206 320 19ft 17kts
16-Jun-20 17:21 37.718755 -122.237268 123 19ft 21kts
16-Jun-20 17:22 37.714924 -122.230671 130 19ft 26kts
16-Jun-20 17:23 37.713139 -122.223635 51 19ft 24kts
16-Jun-20 17:24 37.712264 -122.220960 131 19ft 0kts
16-Jun-20 17:25 37.712531 -122.220494 339 19ft 10kts
16-Jun-20 17:26 37.712974 -122.220636 352 19ft 0kts
16-Jun-20 17:27 37.712974 -122.220636 352 19ft 0kts

Navigation Log

Ident Type
Flight plan parsing failed, navigation log unavailable